createdAt,value
2022-12-12T00:00:27.195Z,99287.06
2022-12-12T00:02:53.656Z,99287.09
2022-12-12T00:05:20.127Z,99281.94
2022-12-12T00:07:46.500Z,99284.59
2022-12-12T00:10:12.941Z,99293.31
2022-12-12T00:12:39.312Z,99287.19
2022-12-12T00:15:06.385Z,99289.81
2022-12-12T00:17:32.772Z,99284.59
2022-12-12T00:19:59.095Z,99286.34
2022-12-12T00:22:25.556Z,99283.72
2022-12-12T00:24:51.885Z,99289.84
2022-12-12T00:27:18.282Z,99286.38
2022-12-12T00:29:44.621Z,99288.16
2022-12-12T00:32:10.965Z,99283.78
2022-12-12T00:34:37.293Z,99301.16
2022-12-12T00:37:03.598Z,99299.47
2022-12-12T00:39:29.882Z,99291.72
2022-12-12T00:41:56.307Z,99292.63
2022-12-12T00:44:22.649Z,99292.66
2022-12-12T00:46:49.040Z,99290.13
2022-12-12T00:49:15.404Z,99300.53
2022-12-12T00:51:43.244Z,99292.78
2022-12-12T00:54:09.854Z,99291.88
2022-12-12T00:56:36.276Z,99291.81
2022-12-12T00:59:03.868Z,99297.00
2022-12-12T01:01:32.415Z,99301.31
2022-12-12T01:04:00.008Z,99298.72
2022-12-12T01:06:27.691Z,99302.13
2022-12-12T01:08:54.767Z,99308.16
2022-12-12T01:11:21.686Z,99318.56
2022-12-12T01:13:49.866Z,99315.13
2022-12-12T01:16:16.939Z,99317.72
2022-12-12T01:18:43.858Z,99317.03
2022-12-12T01:21:12.752Z,99324.03
2022-12-12T01:23:39.623Z,99325.84
2022-12-12T01:26:09.989Z,99325.91
2022-12-12T01:28:37.730Z,99320.69
2022-12-12T01:31:05.240Z,99327.59
2022-12-12T01:33:31.801Z,99331.06
2022-12-12T01:35:58.910Z,99326.72
2022-12-12T01:38:25.688Z,99328.53
2022-12-12T01:40:53.243Z,99328.53
2022-12-12T01:43:21.967Z,99330.34
2022-12-12T01:45:57.789Z,99334.78
2022-12-12T01:48:31.836Z,99334.84
2022-12-12T01:51:02.152Z,99332.38
2022-12-12T01:53:30.024Z,99332.41
2022-12-12T01:55:58.680Z,99328.16
2022-12-12T01:58:25.851Z,99332.50
2022-12-12T02:00:52.477Z,99328.22
2022-12-12T02:03:18.944Z,99329.91
2022-12-12T02:05:56.441Z,99329.03
2022-12-12T02:08:23.919Z,99331.50
2022-12-12T02:10:51.178Z,99332.38
2022-12-12T02:13:30.929Z,99335.06
2022-12-12T02:16:15.740Z,99336.72
2022-12-12T02:18:50.008Z,99336.72
2022-12-12T02:21:34.528Z,99338.44
2022-12-12T02:24:33.126Z,99336.72
2022-12-12T02:27:35.525Z,99333.09
2022-12-12T02:30:10.663Z,99335.63
2022-12-12T02:32:58.770Z,99337.34
2022-12-12T02:35:49.418Z,99334.69
2022-12-12T02:38:37.246Z,99343.28
2022-12-12T02:41:33.246Z,99332.06
2022-12-12T02:44:14.624Z,99334.53
2022-12-12T02:46:53.254Z,99336.34
2022-12-12T02:49:29.643Z,99329.41
2022-12-12T02:51:57.779Z,99333.69
2022-12-12T02:54:24.298Z,99331.16
2022-12-12T02:56:54.207Z,99328.63
2022-12-12T02:59:31.419Z,99338.22
2022-12-12T03:02:08.177Z,99344.47
2022-12-12T03:05:15.735Z,99336.72
2022-12-12T03:07:53.309Z,99334.16
2022-12-12T03:10:29.800Z,99339.41
2022-12-12T03:13:30.537Z,99338.63
2022-12-12T03:16:24.274Z,99335.19
2022-12-12T03:19:12.573Z,99335.25
2022-12-12T03:21:57.717Z,99331.94
2022-12-12T03:24:43.408Z,99340.66
2022-12-12T03:27:16.800Z,99337.19
2022-12-12T03:29:48.217Z,99332.94
2022-12-12T03:32:19.488Z,99336.38
2022-12-12T03:34:52.227Z,99332.94
2022-12-12T03:37:21.232Z,99338.09
2022-12-12T03:39:54.114Z,99334.59
2022-12-12T03:42:20.588Z,99332.84
2022-12-12T03:44:52.654Z,99328.44
2022-12-12T03:47:28.754Z,99333.72
2022-12-12T03:50:08.140Z,99328.56
2022-12-12T03:52:45.526Z,99338.97
2022-12-12T03:55:26.423Z,99328.59
2022-12-12T03:58:00.083Z,99337.25
2022-12-12T04:00:30.125Z,99337.25
2022-12-12T04:03:15.634Z,99352.06
2022-12-12T04:06:04.399Z,99350.25
2022-12-12T04:08:32.172Z,99351.97
2022-12-12T04:11:32.441Z,99345.94
2022-12-12T04:14:13.700Z,99352.78
2022-12-12T04:16:44.617Z,99359.75
2022-12-12T04:19:52.065Z,99355.50
2022-12-12T04:22:42.141Z,99365.84
2022-12-12T04:25:59.824Z,99359.06
2022-12-12T04:28:28.921Z,99364.13
2022-12-12T04:31:00.392Z,99361.59
2022-12-12T04:33:33.983Z,99359.91
2022-12-12T04:36:01.987Z,99374.59
2022-12-12T04:38:29.281Z,99374.66
2022-12-12T04:40:59.298Z,99372.94
2022-12-12T04:43:31.529Z,99374.66
2022-12-12T04:46:04.702Z,99379.00
2022-12-12T04:48:38.621Z,99375.50
2022-12-12T04:51:09.226Z,99379.84
2022-12-12T04:53:40.340Z,99379.03
2022-12-12T04:56:11.464Z,99372.19
2022-12-12T04:58:39.564Z,99380.00
2022-12-12T05:01:22.593Z,99379.25
2022-12-12T05:03:57.356Z,99383.53
2022-12-12T05:06:33.533Z,99380.03
2022-12-12T05:09:01.986Z,99379.03
2022-12-12T05:11:28.782Z,99379.00
2022-12-12T05:13:55.270Z,99372.84
2022-12-12T05:16:27.569Z,99379.75
2022-12-12T05:18:54.253Z,99381.38
2022-12-12T05:21:20.866Z,99383.03
2022-12-12T05:23:47.370Z,99387.38
2022-12-12T05:26:31.462Z,99382.25
2022-12-12T05:29:02.360Z,99385.56
2022-12-12T05:31:33.297Z,99380.34
2022-12-12T05:33:59.766Z,99383.03
2022-12-12T05:36:26.376Z,99383.13
2022-12-12T05:38:52.927Z,99378.84
2022-12-12T05:41:19.445Z,99382.34
2022-12-12T05:43:45.976Z,99388.44
2022-12-12T05:46:12.863Z,99389.22
2022-12-12T05:48:39.370Z,99387.50
2022-12-12T05:51:06.257Z,99385.75
2022-12-12T05:53:36.414Z,99391.69
2022-12-12T05:56:11.267Z,99386.47
2022-12-12T05:58:37.893Z,99385.50
2022-12-12T06:01:05.690Z,99388.03
2022-12-12T06:03:32.622Z,99387.13
2022-12-12T06:05:59.731Z,99387.03
2022-12-12T06:08:26.280Z,99391.31
2022-12-12T06:10:52.870Z,99396.47
2022-12-12T06:13:19.486Z,99393.81
2022-12-12T06:15:46.120Z,99395.53
2022-12-12T06:18:12.643Z,99393.75
2022-12-12T06:20:39.141Z,99398.94
2022-12-12T06:23:05.811Z,99392.88
2022-12-12T06:25:32.399Z,99393.72
2022-12-12T06:27:59.324Z,99399.78
2022-12-12T06:30:26.057Z,99398.91
2022-12-12T06:32:52.472Z,99398.91
2022-12-12T06:35:19.060Z,99402.38
2022-12-12T06:37:45.645Z,99396.31
2022-12-12T06:40:12.712Z,99402.38
2022-12-12T06:42:43.309Z,99401.47
2022-12-12T06:45:14.854Z,99395.44
2022-12-12T06:47:41.719Z,99401.50
2022-12-12T06:50:08.768Z,99398.94
2022-12-12T06:52:35.291Z,99395.47
2022-12-12T06:55:01.865Z,99399.84
2022-12-12T06:57:28.416Z,99408.56
2022-12-12T07:02:29.657Z,99402.59
2022-12-12T07:04:57.501Z,99405.19
2022-12-12T07:07:23.861Z,99407.78
2022-12-12T07:09:50.189Z,99403.47
2022-12-12T07:12:16.502Z,99401.75
2022-12-12T07:14:42.885Z,99404.41
2022-12-12T07:17:09.190Z,99406.22
2022-12-12T07:19:35.718Z,99405.41
2022-12-12T07:22:09.107Z,99404.63
2022-12-12T07:24:36.422Z,99401.16
2022-12-12T07:27:03.187Z,99403.84
2022-12-12T07:29:29.510Z,99401.31
2022-12-12T07:31:55.831Z,99400.53
2022-12-12T07:34:22.158Z,99409.25
2022-12-12T07:36:49.127Z,99409.34
2022-12-12T07:39:20.631Z,99412.88
2022-12-12T07:41:47.192Z,99413.78
2022-12-12T07:44:13.528Z,99418.25
2022-12-12T07:46:39.962Z,99416.50
2022-12-12T07:49:06.388Z,99420.88
2022-12-12T07:51:32.771Z,99430.41
2022-12-12T07:53:59.149Z,99427.84
2022-12-12T07:56:25.500Z,99428.72
2022-12-12T07:58:53.264Z,99428.72
2022-12-12T08:01:23.510Z,99433.91
2022-12-12T08:03:50.680Z,99432.09
2022-12-12T08:06:17.945Z,99432.09
2022-12-12T08:08:45.944Z,99434.72
2022-12-12T08:11:15.862Z,99441.56
2022-12-12T08:13:42.301Z,99440.69
2022-12-12T08:16:20.107Z,99442.38
2022-12-12T08:18:47.737Z,99444.84
2022-12-12T08:21:22.988Z,99448.28
2022-12-12T08:23:51.400Z,99441.31
2022-12-12T08:26:18.398Z,99437.81
2022-12-12T08:28:45.686Z,99448.94
2022-12-12T08:31:16.778Z,99441.16
2022-12-12T08:33:43.331Z,99451.47
2022-12-12T08:36:20.991Z,99452.31
2022-12-12T08:38:47.457Z,99445.28
2022-12-12T08:41:14.593Z,99448.66
2022-12-12T08:43:42.486Z,99452.09
2022-12-12T08:46:16.772Z,99457.19
2022-12-12T08:48:44.134Z,99457.94
2022-12-12T08:51:10.490Z,99464.84
2022-12-12T08:53:36.869Z,99463.06
2022-12-12T08:56:03.208Z,99462.09
2022-12-12T08:58:29.584Z,99465.50
2022-12-12T09:00:56.556Z,99472.34
2022-12-12T09:03:29.003Z,99474.03
2022-12-12T09:05:55.961Z,99471.53
2022-12-12T09:08:22.339Z,99475.00
2022-12-12T09:10:50.207Z,99475.13
2022-12-12T09:13:16.775Z,99476.94
2022-12-12T09:15:43.141Z,99473.53
2022-12-12T09:18:09.503Z,99471.91
2022-12-12T09:20:35.852Z,99483.19
2022-12-12T09:23:02.205Z,99494.53
2022-12-12T09:25:28.632Z,99492.00
2022-12-12T09:27:54.964Z,99489.47
2022-12-12T09:30:21.916Z,99490.38
2022-12-12T09:32:48.215Z,99493.94
2022-12-12T09:35:15.171Z,99498.31
2022-12-12T09:37:41.668Z,99488.91
2022-12-12T09:40:10.939Z,99490.75
2022-12-12T09:42:46.522Z,99492.63
2022-12-12T09:45:13.547Z,99498.75
2022-12-12T09:47:46.131Z,99493.66
2022-12-12T09:50:27.213Z,99486.81
2022-12-12T09:52:56.377Z,99491.88
2022-12-12T09:55:32.810Z,99490.16
2022-12-12T09:58:05.182Z,99494.41
2022-12-12T10:00:36.365Z,99495.22
2022-12-12T10:03:22.076Z,99495.09
2022-12-12T10:06:35.839Z,99494.28
2022-12-12T10:09:24.137Z,99483.78
2022-12-12T10:11:54.371Z,99492.41
2022-12-12T10:14:36.755Z,99485.50
2022-12-12T10:17:29.387Z,99480.22
2022-12-12T10:20:00.344Z,99483.56
2022-12-12T10:22:40.175Z,99494.81
2022-12-12T10:25:18.924Z,99490.44
2022-12-12T10:27:45.260Z,99492.06
2022-12-12T10:30:18.008Z,99498.19
2022-12-12T10:33:05.999Z,99492.97
2022-12-12T10:35:58.436Z,99486.00
2022-12-12T10:38:42.793Z,99491.16
2022-12-12T10:41:19.874Z,99484.97
2022-12-12T10:43:58.081Z,99486.59
2022-12-12T10:46:49.695Z,99489.09
2022-12-12T10:49:19.158Z,99483.72
2022-12-12T10:51:47.341Z,99482.75
2022-12-12T10:54:20.505Z,99484.53
2022-12-12T10:57:19.861Z,99474.22
2022-12-12T10:59:51.533Z,99481.09
2022-12-12T11:02:40.806Z,99478.59
2022-12-12T11:05:17.246Z,99472.41
2022-12-12T11:07:50.224Z,99476.72
2022-12-12T11:10:27.995Z,99467.09
2022-12-12T11:13:03.122Z,99481.75
2022-12-12T11:15:43.775Z,99483.53
2022-12-12T11:18:18.482Z,99483.53
2022-12-12T11:20:48.351Z,99489.53
2022-12-12T11:23:24.752Z,99486.13
2022-12-12T11:26:02.459Z,99484.38
2022-12-12T11:28:34.016Z,99487.81
2022-12-12T11:31:06.732Z,99489.53
2022-12-12T11:33:46.137Z,99484.31
2022-12-12T11:36:23.075Z,99484.22
2022-12-12T11:38:55.802Z,99475.44
2022-12-12T11:41:22.947Z,99477.81
2022-12-12T11:43:49.205Z,99480.28
2022-12-12T11:46:17.093Z,99474.09
2022-12-12T11:48:46.500Z,99471.31
2022-12-12T11:51:29.373Z,99460.88
2022-12-12T11:53:55.920Z,99456.34
2022-12-12T11:56:32.722Z,99456.34
2022-12-12T11:59:11.166Z,99448.50
2022-12-12T12:02:08.146Z,99445.78
2022-12-12T12:05:02.453Z,99446.53
2022-12-12T12:07:56.788Z,99456.03
2022-12-12T12:10:56.877Z,99449.09
2022-12-12T12:14:14.953Z,99445.63
2022-12-12T12:17:02.251Z,99447.22
2022-12-12T12:20:02.670Z,99444.75
2022-12-12T12:22:55.014Z,99446.50
2022-12-12T12:25:30.491Z,99448.94
2022-12-12T12:27:59.964Z,99444.47
2022-12-12T12:30:44.329Z,99440.06
2022-12-12T12:33:32.430Z,99441.66
2022-12-12T12:36:21.485Z,99436.44
2022-12-12T12:39:10.353Z,99432.06
2022-12-12T12:41:49.719Z,99425.06
2022-12-12T12:44:35.626Z,99429.44
2022-12-12T12:47:10.938Z,99428.53
2022-12-12T12:49:54.043Z,99425.94
2022-12-12T12:52:23.983Z,99432.72
2022-12-12T12:54:56.599Z,99435.25
2022-12-12T12:57:32.531Z,99432.69
2022-12-12T13:00:04.503Z,99431.00
2022-12-12T13:02:47.765Z,99430.19
2022-12-12T13:05:20.316Z,99433.53
2022-12-12T13:07:56.563Z,99438.81
2022-12-12T13:10:27.114Z,99438.84
2022-12-12T13:13:04.539Z,99432.06
2022-12-12T13:15:43.788Z,99436.53
2022-12-12T13:18:15.800Z,99430.44
2022-12-12T13:20:47.926Z,99430.34
2022-12-12T13:23:32.945Z,99426.84
2022-12-12T13:26:33.932Z,99434.56
2022-12-12T13:29:14.414Z,99439.59
2022-12-12T13:32:01.741Z,99436.84
2022-12-12T13:34:31.066Z,99434.97
2022-12-12T13:36:58.643Z,99434.81
2022-12-12T13:39:30.090Z,99429.47
2022-12-12T13:42:02.785Z,99441.47
2022-12-12T13:44:44.409Z,99436.16
2022-12-12T13:47:12.960Z,99429.94
2022-12-12T13:49:45.307Z,99434.25
2022-12-12T13:52:40.982Z,99430.72
2022-12-12T13:55:13.352Z,99428.00
2022-12-12T13:58:05.797Z,99425.41
2022-12-12T14:00:39.885Z,99426.22
2022-12-12T14:03:34.163Z,99430.63
2022-12-12T14:06:10.181Z,99430.63
2022-12-12T14:08:38.922Z,99434.91
2022-12-12T14:11:11.922Z,99434.13
2022-12-12T14:13:45.349Z,99435.06
2022-12-12T14:16:15.774Z,99446.34
2022-12-12T14:18:51.279Z,99442.16
2022-12-12T14:21:20.087Z,99442.97
2022-12-12T14:23:53.600Z,99447.50
2022-12-12T14:26:28.966Z,99441.63
2022-12-12T14:29:17.155Z,99443.50
2022-12-12T14:31:55.953Z,99450.53
2022-12-12T14:34:56.510Z,99449.81
2022-12-12T14:37:53.792Z,99463.75
2022-12-12T14:40:28.084Z,99461.28
2022-12-12T14:43:20.521Z,99455.31
2022-12-12T14:45:58.894Z,99457.13
2022-12-12T14:48:27.530Z,99464.94
2022-12-12T14:51:00.054Z,99459.00
2022-12-12T14:53:37.210Z,99461.59
2022-12-12T14:56:11.551Z,99468.47
2022-12-12T14:58:50.551Z,99464.22
2022-12-12T15:01:28.675Z,99472.75
2022-12-12T15:03:55.447Z,99468.41
2022-12-12T15:06:37.765Z,99466.72
2022-12-12T15:09:15.277Z,99471.09
2022-12-12T15:11:41.847Z,99462.38
2022-12-12T15:14:18.913Z,99465.16
2022-12-12T15:17:07.896Z,99467.91
2022-12-12T15:19:43.737Z,99466.25
2022-12-12T15:22:29.600Z,99468.13
2022-12-12T15:24:59.694Z,99467.22
2022-12-12T15:27:41.585Z,99475.13
2022-12-12T15:30:29.293Z,99468.19
2022-12-12T15:32:57.639Z,99469.91
2022-12-12T15:35:24.352Z,99465.72
2022-12-12T15:38:10.364Z,99471.13
2022-12-12T15:40:38.186Z,99473.75
2022-12-12T15:43:07.664Z,99466.13
2022-12-12T15:45:37.664Z,99469.75
2022-12-12T15:48:05.903Z,99468.16
2022-12-12T15:50:44.494Z,99472.63
2022-12-12T15:53:19.035Z,99469.19
2022-12-12T15:56:07.170Z,99467.41
2022-12-12T15:58:38.443Z,99470.75
2022-12-12T16:01:20.954Z,99471.56
2022-12-12T16:04:21.663Z,99475.03
2022-12-12T16:06:49.145Z,99479.19
2022-12-12T16:09:26.815Z,99481.84
2022-12-12T16:11:59.610Z,99482.59
2022-12-12T16:14:42.680Z,99478.34
2022-12-12T16:17:20.622Z,99474.03
2022-12-12T16:20:30.450Z,99474.91
2022-12-12T16:23:09.272Z,99480.13
2022-12-12T16:25:36.786Z,99478.34
2022-12-12T16:28:09.739Z,99478.44
2022-12-12T16:30:37.393Z,99474.03
2022-12-12T16:33:20.456Z,99474.91
2022-12-12T16:35:46.893Z,99474.09
2022-12-12T16:38:15.270Z,99474.19
2022-12-12T16:40:43.094Z,99472.53
2022-12-12T16:43:12.567Z,99477.81
2022-12-12T16:45:40.274Z,99477.03
2022-12-12T16:48:26.433Z,99480.63
2022-12-12T16:50:57.748Z,99479.72
2022-12-12T16:53:24.220Z,99484.13
2022-12-12T16:55:51.968Z,99488.56
2022-12-12T16:58:18.649Z,99487.81
2022-12-12T17:00:45.477Z,99484.53
2022-12-12T17:03:16.296Z,99487.34
2022-12-12T17:05:44.733Z,99487.50
2022-12-12T17:08:11.503Z,99483.38
2022-12-12T17:10:38.372Z,99484.41
2022-12-12T17:13:07.252Z,99487.19
2022-12-12T17:15:34.257Z,99483.94
2022-12-12T17:18:00.966Z,99491.84
2022-12-12T17:20:28.712Z,99489.41
2022-12-12T17:23:29.613Z,99487.78
2022-12-12T17:26:02.906Z,99487.88
2022-12-12T17:28:31.948Z,99470.66
2022-12-12T17:30:58.788Z,99473.34
2022-12-12T17:33:25.673Z,99475.97
2022-12-12T17:36:06.907Z,99475.31
2022-12-12T17:38:33.805Z,99476.13
2022-12-12T17:41:04.964Z,99472.81
2022-12-12T17:43:31.552Z,99478.03
2022-12-12T17:46:03.916Z,99475.56
2022-12-12T17:48:32.942Z,99476.50
2022-12-12T17:51:01.670Z,99480.91
2022-12-12T17:53:36.580Z,99477.53
2022-12-12T17:56:07.847Z,99484.47
2022-12-12T17:58:37.988Z,99486.25
2022-12-12T18:01:14.052Z,99485.47
2022-12-12T18:03:41.866Z,99481.91
2022-12-12T18:06:09.787Z,99483.63
2022-12-12T18:08:37.412Z,99485.28
2022-12-12T18:11:14.424Z,99481.84
2022-12-12T18:13:42.194Z,99480.78
2022-12-12T18:16:11.477Z,99480.72
2022-12-12T18:18:38.761Z,99477.97
2022-12-12T18:21:35.961Z,99477.84
2022-12-12T18:24:02.128Z,99478.50
2022-12-12T18:26:28.836Z,99477.56
2022-12-12T18:28:57.789Z,99479.16
2022-12-12T18:31:24.829Z,99477.38
2022-12-12T18:33:51.690Z,99478.16
2022-12-12T18:36:20.806Z,99481.56
2022-12-12T18:38:48.224Z,99482.41
2022-12-12T18:41:16.586Z,99481.50
2022-12-12T18:43:43.145Z,99484.09
2022-12-12T18:46:14.933Z,99483.34
2022-12-12T18:48:43.813Z,99482.59
2022-12-12T18:51:16.700Z,99493.97
2022-12-12T18:53:43.710Z,99489.75
2022-12-12T18:56:16.755Z,99489.84
2022-12-12T18:58:44.155Z,99497.81
2022-12-12T19:03:56.899Z,99499.88
2022-12-12T19:06:26.998Z,99500.06
2022-12-12T19:08:54.200Z,99503.63
2022-12-12T19:11:20.638Z,99490.75
2022-12-12T19:13:47.158Z,99497.78
2022-12-12T19:16:16.224Z,99495.28
2022-12-12T19:18:43.768Z,99491.00
2022-12-12T19:21:14.469Z,99490.22
2022-12-12T19:23:41.415Z,99493.59
2022-12-12T19:26:16.901Z,99485.81
2022-12-12T19:28:44.052Z,99481.44
2022-12-12T19:31:14.676Z,99471.06
2022-12-12T19:33:44.644Z,99475.31
2022-12-12T19:36:22.320Z,99471.94
2022-12-12T19:38:49.085Z,99473.69
2022-12-12T19:41:18.223Z,99469.50
2022-12-12T19:43:45.829Z,99471.34
2022-12-12T19:46:19.178Z,99466.31
2022-12-12T19:48:45.906Z,99460.34
2022-12-12T19:51:17.766Z,99470.00
2022-12-12T19:53:49.445Z,99469.19
2022-12-12T19:56:20.317Z,99471.84
2022-12-12T19:58:46.655Z,99471.06
2022-12-12T20:01:16.475Z,99473.69
2022-12-12T20:03:42.783Z,99476.28
2022-12-12T20:06:11.378Z,99476.31
2022-12-12T20:08:38.269Z,99469.41
2022-12-12T20:11:06.578Z,99465.13
2022-12-12T20:13:33.431Z,99458.22
2022-12-12T20:16:04.815Z,99464.34
2022-12-12T20:18:31.379Z,99461.72
2022-12-12T20:20:58.448Z,99466.09
2022-12-12T20:23:24.732Z,99470.44
2022-12-12T20:25:51.064Z,99476.53
2022-12-12T20:28:17.496Z,99463.63
2022-12-12T20:30:43.863Z,99470.59
2022-12-12T20:33:10.273Z,99470.63
2022-12-12T20:35:36.629Z,99480.19
2022-12-12T20:38:02.940Z,99475.88
2022-12-12T20:40:29.416Z,99481.09
2022-12-12T20:43:03.011Z,99476.81
2022-12-12T20:45:29.783Z,99475.13
2022-12-12T20:47:56.076Z,99473.41
2022-12-12T20:50:22.391Z,99479.47
2022-12-12T20:52:48.746Z,99482.09
2022-12-12T20:55:15.448Z,99480.41
2022-12-12T20:57:42.072Z,99475.31
2022-12-12T21:00:09.038Z,99474.50
2022-12-12T21:02:35.440Z,99477.13
2022-12-12T21:05:01.754Z,99478.94
2022-12-12T21:07:28.029Z,99472.09
2022-12-12T21:09:54.318Z,99473.81
2022-12-12T21:12:20.783Z,99478.19
2022-12-12T21:14:47.112Z,99479.94
2022-12-12T21:17:13.494Z,99477.38
2022-12-12T21:19:39.899Z,99474.81
2022-12-12T21:22:08.209Z,99474.00
2022-12-12T21:24:34.576Z,99478.34
2022-12-12T21:27:00.933Z,99473.22
2022-12-12T21:29:27.237Z,99473.25
2022-12-12T21:31:53.614Z,99481.91
2022-12-12T21:34:21.927Z,99481.97
2022-12-12T21:36:53.793Z,99484.63
2022-12-12T21:39:26.554Z,99481.13
2022-12-12T21:41:53.037Z,99484.63
2022-12-12T21:44:20.653Z,99484.66
2022-12-12T21:46:47.463Z,99480.41
2022-12-12T21:49:19.657Z,99472.69
2022-12-12T21:51:46.239Z,99478.75
2022-12-12T21:54:15.297Z,99470.22
2022-12-12T21:56:42.444Z,99474.53
2022-12-12T21:59:10.917Z,99472.81
2022-12-12T22:01:37.515Z,99473.75
2022-12-12T22:04:04.052Z,99482.41
2022-12-12T22:06:32.927Z,99480.72
2022-12-12T22:09:00.560Z,99475.56
2022-12-12T22:11:48.233Z,99486.06
2022-12-12T22:14:18.568Z,99484.38
2022-12-12T22:16:45.175Z,99485.31
2022-12-12T22:19:13.723Z,99483.66
2022-12-12T22:21:40.108Z,99487.22
2022-12-12T22:24:06.994Z,99481.19
2022-12-12T22:26:39.005Z,99481.22
2022-12-12T22:29:08.526Z,99486.47
2022-12-12T22:31:37.488Z,99485.59
2022-12-12T22:34:06.802Z,99483.94
2022-12-12T22:36:37.739Z,99482.25
2022-12-12T22:39:06.865Z,99479.66
2022-12-12T22:41:33.618Z,99490.06
2022-12-12T22:44:02.367Z,99491.78
2022-12-12T22:46:29.186Z,99492.69
2022-12-12T22:48:58.994Z,99488.41
2022-12-12T22:51:29.323Z,99498.81
2022-12-12T22:53:57.264Z,99489.34
2022-12-12T22:56:23.721Z,99491.09
2022-12-12T22:58:50.162Z,99493.72
2022-12-12T23:01:20.991Z,99485.16
2022-12-12T23:03:47.737Z,99484.31
2022-12-12T23:06:20.080Z,99488.66
2022-12-12T23:08:51.819Z,99480.94
2022-12-12T23:11:19.789Z,99490.44
2022-12-12T23:13:46.452Z,99484.41
2022-12-12T23:16:18.784Z,99471.53
2022-12-12T23:18:46.741Z,99475.81
2022-12-12T23:21:17.188Z,99475.84
2022-12-12T23:23:44.923Z,99473.28
2022-12-12T23:26:18.126Z,99472.41
2022-12-12T23:28:45.797Z,99468.94
2022-12-12T23:31:18.782Z,99475.88
2022-12-12T23:33:46.417Z,99476.69
2022-12-12T23:36:14.422Z,99475.84
2022-12-12T23:38:41.386Z,99473.28
2022-12-12T23:41:10.447Z,99469.81
2022-12-12T23:43:37.512Z,99468.09
2022-12-12T23:46:06.360Z,99479.28
2022-12-12T23:48:33.922Z,99474.13
2022-12-12T23:51:01.055Z,99473.25
2022-12-12T23:53:30.826Z,99469.81
2022-12-12T23:56:02.308Z,99464.59
2022-12-12T23:58:28.607Z,99465.50
